Time;durP1;ratioP1;P1;durP2;ratioP2;P2;SDS_P1;SDS_P2;PMS_P1;PMS_P2;Temp;Humidity;BMP_temperature;BMP_pressure;BME280_temperature;BME280_humidity;BME280_pressure;Samples;Min_cycle;Max_cycle;Signal;HPM_P1;HPM_P2
2021/09/01 00:01:40;;;;;;;9.90;5.08;;;;;;;15.89;77.40;101435.09;1716626;83;21058;-83
2021/09/01 00:04:07;;;;;;;11.05;5.10;;;;;;;15.87;77.43;101428.88;1712546;83;21872;-84
2021/09/01 00:06:37;;;;;;;10.78;5.30;;;;;;;15.90;77.44;101427.59;1714952;81;21493;-84
2021/09/01 00:09:03;;;;;;;9.20;5.60;;;;;;;15.90;77.39;101420.96;1715340;83;21003;-84
2021/09/01 00:11:31;;;;;;;11.28;4.55;;;;;;;15.91;77.40;101417.41;1666420;83;20991;-84
2021/09/01 00:14:01;;;;;;;7.90;5.15;;;;;;;15.91;77.37;101423.17;1715394;83;20999;-84
2021/09/01 00:16:29;;;;;;;9.48;5.05;;;;;;;15.90;77.34;101433.35;1715340;83;21753;-84
2021/09/01 00:18:58;;;;;;;8.25;4.97;;;;;;;15.87;77.26;101439.48;1687338;83;21046;-84
2021/09/01 00:21:25;;;;;;;9.28;4.92;;;;;;;15.80;77.16;101429.64;1697868;84;21014;-84
2021/09/01 00:23:52;;;;;;;12.10;5.25;;;;;;;15.73;77.13;101434.41;1697747;84;21035;-84
2021/09/01 00:26:19;;;;;;;10.00;4.85;;;;;;;15.66;77.16;101437.83;1697809;84;20986;-84
2021/09/01 00:28:50;;;;;;;8.58;5.20;;;;;;;15.59;77.29;101446.56;1665810;84;21010;-84
2021/09/01 00:31:19;;;;;;;8.35;5.50;;;;;;;15.54;77.47;101450.45;1697464;84;21019;-84
2021/09/01 00:33:50;;;;;;;9.85;5.00;;;;;;;15.53;77.55;101452.66;1697684;84;21026;-85
2021/09/01 00:36:16;;;;;;;11.90;5.42;;;;;;;15.48;77.49;101456.99;1697304;84;21015;-84
2021/09/01 00:38:46;;;;;;;10.93;5.12;;;;;;;15.45;77.47;101456.97;1697811;84;21572;-84
2021/09/01 00:41:21;;;;;;;8.08;5.25;;;;;;;15.39;77.53;101456.84;1693644;83;21835;-84
2021/09/01 00:43:55;;;;;;;8.50;4.50;;;;;;;15.36;77.69;101449.73;1688937;83;21079;-84
2021/09/01 00:46:26;;;;;;;10.20;4.92;;;;;;;15.34;77.73;101459.44;1714664;83;21035;-84
2021/09/01 00:48:53;;;;;;;7.75;4.50;;;;;;;15.32;77.83;101457.19;1688801;83;21007;-85
2021/09/01 00:51:21;;;;;;;8.43;5.55;;;;;;;15.30;77.87;101454.95;1715294;83;20995;-84
2021/09/01 00:53:51;;;;;;;8.85;4.97;;;;;;;15.29;77.79;101459.78;1715257;83;21697;-84
2021/09/01 00:56:20;;;;;;;9.40;4.90;;;;;;;15.31;77.93;101454.06;1714509;83;21015;-84
2021/09/01 00:58:47;;;;;;;7.55;4.35;;;;;;;15.32;77.96;101450.12;1715362;83;21002;-83
2021/09/01 01:01:17;;;;;;;11.48;4.97;;;;;;;15.34;77.89;101472.25;1715227;83;21552;-84
2021/09/01 01:03:54;;;;;;;8.58;4.45;;;;;;;15.34;77.81;101464.73;1689349;83;21523;-84
2021/09/01 01:06:23;;;;;;;6.35;4.47;;;;;;;15.34;77.82;101468.72;1714555;83;22004;-84
2021/09/01 01:08:50;;;;;;;10.18;4.65;;;;;;;15.34;77.76;101467.39;1715496;83;21028;-84
2021/09/01 01:11:18;;;;;;;8.55;4.80;;;;;;;15.29;77.63;101471.72;1715066;83;20991;-84
2021/09/01 01:13:49;;;;;;;12.58;5.47;;;;;;;15.25;77.64;101472.09;1715263;82;21023;-84
2021/09/01 01:16:18;;;;;;;11.88;7.42;;;;;;;15.23;77.73;101472.95;1715352;83;20991;-85
2021/09/01 01:18:46;;;;;;;12.25;7.10;;;;;;;15.17;77.78;101473.73;1715092;83;21706;-85
2021/09/01 01:21:29;;;;;;;10.20;5.72;;;;;;;15.12;77.88;101468.33;1689093;83;20996;-85
2021/09/01 01:23:57;;;;;;;17.07;13.35;;;;;;;15.07;77.96;101480.63;1715349;81;20999;-85
2021/09/01 01:26:29;;;;;;;49.60;36.58;;;;;;;15.04;78.08;101479.23;1687251;83;21035;-85
2021/09/01 01:29:01;;;;;;;21.95;14.25;;;;;;;15.04;78.27;101490.28;1697098;84;21022;-85
2021/09/01 01:31:32;;;;;;;13.22;8.55;;;;;;;15.04;78.35;101490.28;1699614;84;21784;-85
2021/09/01 01:33:58;;;;;;;11.75;7.47;;;;;;;15.04;78.48;101488.96;1696695;84;21622;-84
2021/09/01 01:36:29;;;;;;;10.13;6.17;;;;;;;15.04;78.57;101490.28;1697648;84;21034;-84
2021/09/01 01:38:55;;;;;;;8.63;4.97;;;;;;;15.03;78.65;101488.05;1697314;84;21090;-83
2021/09/01 01:41:21;;;;;;;10.53;5.28;;;;;;;15.06;78.76;101496.51;1715152;82;20999;-83
2021/09/01 01:43:49;;;;;;;11.43;5.33;;;;;;;15.08;78.86;101493.45;1714135;83;21777;-84
2021/09/01 01:46:17;;;;;;;8.25;4.75;;;;;;;15.10;78.92;101496.58;1715085;83;21014;-84
2021/09/01 01:48:47;;;;;;;13.45;6.55;;;;;;;15.11;78.90;101494.84;1715085;83;21011;-84
2021/09/01 01:51:14;;;;;;;21.07;9.78;;;;;;;15.11;78.92;101491.75;1714892;83;21067;-85
2021/09/01 01:53:40;;;;;;;16.90;8.85;;;;;;;15.11;78.90;101493.52;1715236;82;21124;-85
2021/09/01 01:56:07;;;;;;;23.65;14.90;;;;;;;15.06;78.91;101497.39;1717907;83;21750;-85
2021/09/01 01:58:34;;;;;;;14.20;9.25;;;;;;;15.02;78.93;101496.88;1687773;83;21690;-85
2021/09/01 02:01:01;;;;;;;14.68;6.33;;;;;;;14.97;78.99;101499.87;1697820;84;21089;-85
2021/09/01 02:03:28;;;;;;;9.90;5.87;;;;;;;14.92;79.16;101499.80;1697828;84;20979;-85
2021/09/01 02:05:57;;;;;;;11.10;6.20;;;;;;;14.92;79.37;101494.50;1715354;81;21077;-85
2021/09/01 02:08:26;;;;;;;13.15;8.23;;;;;;;14.92;79.39;101503.77;1715454;81;21742;-85
2021/09/01 02:10:54;;;;;;;13.15;7.22;;;;;;;14.92;79.51;101494.50;1714978;83;20995;-85
2021/09/01 02:13:33;;;;;;;8.43;5.37;;;;;;;14.90;79.48;101489.60;1715306;83;21611;-84
2021/09/01 02:16:03;;;;;;;8.13;5.65;;;;;;;14.89;79.48;101500.17;1715267;81;21003;-85
2021/09/01 02:18:29;;;;;;;10.18;5.10;;;;;;;14.87;79.62;101500.57;1715105;83;20987;-85
2021/09/01 02:20:55;;;;;;;10.00;6.10;;;;;;;14.86;79.65;101503.63;1715319;83;21733;-85
2021/09/01 02:23:28;;;;;;;11.35;5.58;;;;;;;14.85;79.65;101507.16;1691796;83;21026;-85
2021/09/01 02:25:53;;;;;;;12.05;5.35;;;;;;;14.82;79.56;101508.41;1714582;83;21071;-84
2021/09/01 02:28:19;;;;;;;10.18;6.00;;;;;;;14.78;79.63;101509.23;1715385;82;21023;-85
2021/09/01 02:30:49;;;;;;;7.72;5.22;;;;;;;14.72;79.61;101512.64;1715292;83;21069;-85
2021/09/01 02:33:16;;;;;;;8.48;5.12;;;;;;;14.68;79.66;101515.22;1715322;82;21754;-83
2021/09/01 02:35:46;;;;;;;11.15;5.50;;;;;;;14.61;79.75;101511.53;1715051;82;21560;-83
2021/09/01 02:38:15;;;;;;;11.45;5.22;;;;;;;14.62;80.06;101516.39;1714704;83;20983;-85
2021/09/01 02:43:19;;;;;;;10.75;5.00;;;;;;;14.75;80.20;101516.70;1868939;76;22636;-82
2021/09/01 02:45:45;;;;;;;8.75;5.00;;;;;;;14.74;80.17;101514.89;1825603;77;21121;-82
2021/09/01 02:48:12;;;;;;;7.53;5.05;;;;;;;14.75;80.00;101521.08;1825918;78;21738;-82
2021/09/01 02:50:39;;;;;;;10.35;4.50;;;;;;;14.75;80.06;101512.72;1825645;78;21051;-83
2021/09/01 02:53:05;;;;;;;7.35;4.40;;;;;;;14.76;79.98;101515.81;1825964;78;21033;-84
2021/09/01 02:55:32;;;;;;;8.93;4.60;;;;;;;14.78;80.03;101521.16;1789716;80;21041;-85
2021/09/01 02:57:59;;;;;;;11.65;4.65;;;;;;;14.78;79.96;101511.44;1772467;80;20996;-85
2021/09/01 03:00:26;;;;;;;8.10;4.10;;;;;;;14.76;79.92;101510.52;1772649;81;22560;-83
2021/09/01 03:02:52;;;;;;;9.33;4.25;;;;;;;14.71;79.93;101513.94;1783933;80;21011;-82
2021/09/01 03:05:19;;;;;;;20.40;4.80;;;;;;;14.66;79.95;101524.45;1783911;80;21031;-84
2021/09/01 03:07:46;;;;;;;7.90;4.22;;;;;;;14.65;80.10;101527.06;1783927;80;21596;-83
2021/09/01 03:10:12;;;;;;;8.08;4.22;;;;;;;14.63;80.10;101531.45;1784082;80;20995;-83
2021/09/01 03:12:39;;;;;;;10.43;5.10;;;;;;;14.60;80.12;101532.70;1783893;80;21808;-83
2021/09/01 03:15:06;;;;;;;9.63;5.35;;;;;;;14.59;80.20;101525.19;1783955;80;21141;-83
2021/09/01 03:17:33;;;;;;;7.75;4.65;;;;;;;14.59;80.22;101538.43;1784011;80;21481;-83
2021/09/01 03:19:59;;;;;;;9.50;5.30;;;;;;;14.57;80.21;101530.88;1783819;80;21007;-83
2021/09/01 03:22:26;;;;;;;8.53;4.60;;;;;;;14.54;80.13;101529.01;1783815;80;21051;-84
2021/09/01 03:24:53;;;;;;;12.88;5.17;;;;;;;14.53;80.20;101535.63;1783793;80;21747;-83
2021/09/01 03:27:20;;;;;;;7.78;4.80;;;;;;;14.50;80.16;101527.60;1783787;80;21505;-82
2021/09/01 03:29:46;;;;;;;10.25;4.72;;;;;;;14.44;80.14;101534.10;1783865;80;21031;-83
2021/09/01 03:32:13;;;;;;;8.93;4.65;;;;;;;14.43;80.32;101535.83;1783849;80;21074;-83
2021/09/01 03:34:40;;;;;;;8.03;4.90;;;;;;;14.40;80.33;101539.77;1783937;80;21527;-83
2021/09/01 03:37:06;;;;;;;8.65;4.75;;;;;;;14.37;80.40;101550.27;1783520;80;22559;-80
2021/09/01 03:39:33;;;;;;;11.83;4.87;;;;;;;14.34;80.51;101546.22;1783545;80;21031;-81
2021/09/01 03:42:00;;;;;;;9.65;6.12;;;;;;;14.36;80.67;101560.42;1783186;79;21019;-81
2021/09/01 03:44:26;;;;;;;10.60;5.75;;;;;;;14.38;80.86;101545.45;1783444;80;21121;-81
2021/09/01 03:46:53;;;;;;;7.37;4.42;;;;;;;14.39;80.86;101549.88;1783283;80;21607;-81
2021/09/01 03:49:20;;;;;;;10.18;5.10;;;;;;;14.41;80.93;101553.89;1783340;80;21747;-80
2021/09/01 03:51:47;;;;;;;7.15;4.45;;;;;;;14.41;80.83;101560.52;1783346;80;21041;-81
2021/09/01 03:54:14;;;;;;;8.30;4.75;;;;;;;14.38;80.91;101564.88;1783182;80;21062;-83
2021/09/01 03:56:40;;;;;;;7.75;4.60;;;;;;;14.41;80.99;101560.52;1783296;80;21137;-85
2021/09/01 03:59:07;;;;;;;6.95;4.42;;;;;;;14.39;80.90;101552.52;1783126;80;21098;-83
2021/09/01 04:01:35;;;;;;;8.60;4.28;;;;;;;14.40;81.00;101563.59;1783180;80;21733;-80
2021/09/01 04:04:05;;;;;;;10.20;5.10;;;;;;;14.38;80.93;101560.91;1782641;80;21074;-81
2021/09/01 04:06:32;;;;;;;6.95;4.33;;;;;;;14.36;80.91;101559.98;1782864;80;21066;-81
2021/09/01 04:08:59;;;;;;;6.78;3.98;;;;;;;14.33;81.00;101567.84;1779530;80;21124;-81
2021/09/01 04:11:25;;;;;;;11.50;4.72;;;;;;;14.30;80.98;101558.94;1769512;80;21555;-81
2021/09/01 04:13:52;;;;;;;11.20;4.70;;;;;;;14.27;81.01;101568.16;1768302;80;21691;-81
2021/09/01 04:16:19;;;;;;;8.03;4.53;;;;;;;14.25;81.02;101571.20;1797345;79;21073;-83
2021/09/01 04:18:45;;;;;;;6.80;4.35;;;;;;;14.25;81.07;101577.82;1800001;79;21072;-83
2021/09/01 04:21:12;;;;;;;8.50;4.60;;;;;;;14.26;81.06;101571.65;1781377;79;21058;-83
2021/09/01 04:23:38;;;;;;;9.30;3.83;;;;;;;14.24;80.98;101564.98;1778570;80;21096;-82
2021/09/01 04:26:05;;;;;;;9.73;4.72;;;;;;;14.23;80.98;101567.19;1772273;81;21172;-82
2021/09/01 04:28:32;;;;;;;9.40;4.75;;;;;;;14.26;81.07;101566.35;1824595;77;21219;-82
2021/09/01 04:30:58;;;;;;;11.12;4.30;;;;;;;14.26;80.96;101569.89;1824830;78;21611;-84
2021/09/01 04:33:25;;;;;;;8.40;4.15;;;;;;;14.24;81.00;101574.25;1825149;78;21076;-85
2021/09/01 04:35:52;;;;;;;9.53;4.33;;;;;;;14.26;81.17;101584.89;1824981;78;21048;-85
2021/09/01 04:38:18;;;;;;;12.05;5.08;;;;;;;14.33;81.30;101591.69;1824648;78;22603;-82
2021/09/01 04:40:45;;;;;;;9.95;6.47;;;;;;;14.39;81.20;101593.14;1824487;78;21034;-81
2021/09/01 04:43:12;;;;;;;9.65;4.80;;;;;;;14.43;80.99;101598.08;1818999;78;21035;-82
2021/09/01 04:45:39;;;;;;;16.48;9.30;;;;;;;14.43;80.87;101599.84;1817099;78;21543;-82
2021/09/01 04:48:05;;;;;;;12.05;5.85;;;;;;;14.46;80.94;101611.84;1817524;78;21018;-83
2021/09/01 04:50:32;;;;;;;11.43;7.80;;;;;;;14.52;81.01;101605.35;1817046;77;21763;-81
2021/09/01 04:52:59;;;;;;;6.95;5.33;;;;;;;14.66;80.99;101611.90;1816884;79;21058;-81
2021/09/01 04:55:25;;;;;;;9.48;5.97;;;;;;;14.75;80.74;101613.83;1816893;79;21050;-81
2021/09/01 04:57:52;;;;;;;8.30;4.53;;;;;;;14.81;80.54;101612.66;1817148;79;21022;-82
2021/09/01 05:00:18;;;;;;;8.38;4.10;;;;;;;14.88;80.41;101609.70;1817215;78;21069;-84
2021/09/01 05:02:45;;;;;;;12.60;5.47;;;;;;;15.06;80.57;101615.83;1790497;80;21912;-85
2021/09/01 05:05:12;;;;;;;10.60;4.90;;;;;;;16.02;82.30;101605.22;1789919;80;21517;-84
2021/09/01 05:07:38;;;;;;;8.90;3.90;;;;;;;16.55;79.67;101604.25;1789842;79;21057;-85
2021/09/01 05:10:06;;;;;;;8.00;4.80;;;;;;;16.47;78.11;101606.80;1789955;80;21091;-86
2021/09/01 05:12:32;;;;;;;7.85;4.28;;;;;;;16.28;77.77;101610.50;1790215;80;21335;-85
2021/09/01 05:14:59;;;;;;;6.30;4.10;;;;;;;16.20;77.91;101602.87;1789881;80;21736;-81
2021/09/01 05:17:25;;;;;;;6.42;4.45;;;;;;;16.70;78.98;101609.77;1789191;79;21045;-81
2021/09/01 05:19:52;;;;;;;10.43;4.50;;;;;;;17.03;77.29;101609.80;1789393;80;21139;-81
2021/09/01 05:22:21;;;;;;;7.10;3.98;;;;;;;17.02;76.82;101610.20;1790051;79;21515;-82
2021/09/01 05:25:11;;;;;;;11.57;7.08;;;;;;;17.04;76.69;101614.22;1789936;80;21079;-82
2021/09/01 05:27:40;;;;;;;7.55;3.90;;;;;;;17.00;76.29;101607.09;1789983;80;21964;-82
2021/09/01 05:30:15;;;;;;;6.40;4.53;;;;;;;17.01;75.93;101610.22;1758591;81;21013;-83
2021/09/01 05:32:43;;;;;;;7.72;5.72;;;;;;;17.06;75.90;101616.05;1789722;79;21132;-83
2021/09/01 05:35:11;;;;;;;6.30;4.25;;;;;;;17.20;75.82;101624.18;1789626;80;21506;-81
2021/09/01 05:37:38;;;;;;;8.53;5.42;;;;;;;17.29;75.26;101622.95;1789674;79;21520;-82
2021/09/01 05:40:06;;;;;;;7.87;4.50;;;;;;;17.36;75.11;101623.94;1789580;80;21735;-83
2021/09/01 05:42:33;;;;;;;8.75;5.08;;;;;;;17.35;74.82;101619.92;1788264;79;21014;-81
2021/09/01 05:45:01;;;;;;;13.20;9.58;;;;;;;17.41;74.59;101614.66;1786191;79;21005;-83
2021/09/01 05:47:28;;;;;;;8.53;4.50;;;;;;;17.38;74.44;101618.60;1784723;80;21797;-85
2021/09/01 05:49:56;;;;;;;7.78;4.95;;;;;;;17.27;73.96;101627.82;1786724;79;21048;-85
2021/09/01 05:52:23;;;;;;;5.42;3.70;;;;;;;17.09;73.95;101628.03;1786432;80;21775;-84
2021/09/01 05:54:51;;;;;;;7.87;3.30;;;;;;;17.01;73.84;101625.73;1786689;80;21098;-87
2021/09/01 05:57:21;;;;;;;6.40;2.92;;;;;;;16.93;73.79;101628.73;1786625;80;20994;-82
2021/09/01 05:59:55;;;;;;;5.35;3.10;;;;;;;16.85;73.89;101631.27;1786429;80;21149;-83
2021/09/01 06:02:25;;;;;;;7.33;2.75;;;;;;;16.83;73.95;101633.47;1786528;79;21041;-85
2021/09/01 06:04:52;;;;;;;6.20;3.62;;;;;;;16.78;73.73;101631.14;1786237;80;21736;-86
2021/09/01 06:07:18;;;;;;;5.40;2.95;;;;;;;16.72;73.81;101629.29;1786205;80;21033;-84
2021/09/01 06:09:46;;;;;;;7.75;4.72;;;;;;;16.73;73.83;101632.42;1786617;80;21083;-86
2021/09/01 06:12:17;;;;;;;7.80;5.05;;;;;;;16.75;73.69;101644.41;1787067;80;21053;-81
2021/09/01 06:14:44;;;;;;;7.42;3.20;;;;;;;16.76;73.86;101658.14;1786407;79;21146;-81
2021/09/01 06:17:10;;;;;;;5.50;2.95;;;;;;;16.76;73.78;101644.84;1786379;80;22541;-81
2021/09/01 06:19:38;;;;;;;5.37;4.00;;;;;;;16.72;73.64;101637.27;1786405;80;21016;-81
2021/09/01 06:22:05;;;;;;;6.25;3.00;;;;;;;16.71;73.72;101642.14;1786581;79;21112;-81
2021/09/01 06:24:35;;;;;;;8.10;2.67;;;;;;;16.64;73.18;101646.91;1755304;81;21212;-82
2021/09/01 06:27:02;;;;;;;6.75;3.05;;;;;;;16.60;73.59;101647.74;1786752;79;21591;-84
2021/09/01 06:29:28;;;;;;;4.97;2.95;;;;;;;16.64;73.26;101669.50;1755759;81;21748;-83
2021/09/01 06:31:55;;;;;;;4.53;2.10;;;;;;;16.63;73.19;101656.66;1786412;80;21092;-83
2021/09/01 06:34:22;;;;;;;9.35;5.25;;;;;;;16.67;73.34;101676.20;1786805;80;21087;-86
2021/09/01 06:36:48;;;;;;;8.13;3.98;;;;;;;16.74;73.21;101662.55;1787840;79;21104;-85
2021/09/01 06:39:15;;;;;;;7.83;3.33;;;;;;;16.86;73.29;101663.66;1788910;80;21579;-86
2021/09/01 06:41:42;;;;;;;7.30;3.08;;;;;;;17.21;73.28;101661.90;1788788;79;21743;-86
2021/09/01 06:44:09;;;;;;;9.65;3.20;;;;;;;17.57;72.57;101663.61;1779831;79;21018;-87
2021/09/01 06:46:35;;;;;;;8.45;2.62;;;;;;;17.80;72.33;101660.75;1760063;81;21081;-87
2021/09/01 06:49:02;;;;;;;5.00;2.67;;;;;;;18.01;71.96;101666.75;1760354;81;21073;-86
2021/09/01 06:51:29;;;;;;;5.08;2.70;;;;;;;18.21;71.81;101658.94;1760458;81;21301;-86
2021/09/01 06:53:55;;;;;;;4.83;2.52;;;;;;;18.32;71.22;101659.45;1760423;81;21748;-86
2021/09/01 06:56:22;;;;;;;6.28;3.50;;;;;;;18.42;71.09;101662.64;1760539;81;21634;-86
2021/09/01 06:58:48;;;;;;;10.58;3.33;;;;;;;18.46;70.62;101660.00;1760838;81;21169;-87
2021/09/01 07:01:15;;;;;;;7.08;3.22;;;;;;;18.51;70.59;101660.50;1761271;81;21085;-87
2021/09/01 07:03:43;;;;;;;4.35;2.27;;;;;;;18.67;70.80;101664.14;1761273;81;21073;-87
2021/09/01 07:06:10;;;;;;;6.20;2.50;;;;;;;18.80;69.90;101664.66;1815791;79;21744;-86
2021/09/01 07:08:36;;;;;;;3.10;2.00;;;;;;;18.76;69.76;101661.08;1815760;78;21045;-87
2021/09/01 07:11:03;;;;;;;5.15;2.20;;;;;;;18.80;69.70;101672.24;1815782;79;21202;-87
2021/09/01 07:13:30;;;;;;;5.30;2.30;;;;;;;18.78;69.10;101665.98;1815517;79;21030;-83
2021/09/01 07:15:56;;;;;;;7.28;2.45;;;;;;;18.65;68.52;101678.34;1815334;79;21050;-83
2021/09/01 07:18:23;;;;;;;4.78;2.52;;;;;;;18.53;69.07;101670.73;1815395;79;22567;-83
2021/09/01 07:20:49;;;;;;;5.10;2.83;;;;;;;18.58;69.28;101677.87;1815143;78;21026;-87
2021/09/01 07:23:16;;;;;;;3.52;2.17;;;;;;;18.69;69.00;101679.25;1815316;77;21070;-87
2021/09/01 07:25:43;;;;;;;3.77;2.00;;;;;;;18.73;68.65;101680.17;1815447;79;21364;-87
2021/09/01 07:28:10;;;;;;;3.50;2.12;;;;;;;18.71;68.87;101687.27;1815303;78;21073;-86
2021/09/01 07:30:37;;;;;;;6.75;2.20;;;;;;;18.70;68.52;101684.17;1815472;79;21729;-87
2021/09/01 07:33:04;;;;;;;6.00;2.30;;;;;;;18.78;68.63;101685.10;1816081;79;21000;-87
2021/09/01 07:35:30;;;;;;;4.28;2.20;;;;;;;18.91;68.86;101687.44;1815691;78;21105;-83
2021/09/01 07:37:57;;;;;;;5.50;2.02;;;;;;;18.99;68.70;101687.91;1815699;78;21571;-83
2021/09/01 07:40:24;;;;;;;4.95;1.95;;;;;;;18.95;68.27;101686.56;1815490;77;21050;-83
2021/09/01 07:42:50;;;;;;;3.77;2.10;;;;;;;18.95;68.42;101696.78;1814272;77;21787;-83
2021/09/01 07:45:18;;;;;;;4.47;1.92;;;;;;;18.97;68.26;101691.02;1807660;78;21085;-83
2021/09/01 07:47:50;;;;;;;7.25;2.17;;;;;;;19.06;68.48;101704.86;1807793;79;21195;-83
2021/09/01 07:50:25;;;;;;;5.70;2.30;;;;;;;19.04;67.96;101692.83;1807735;79;21113;-83
2021/09/01 07:52:51;;;;;;;4.28;1.70;;;;;;;19.07;68.01;101703.98;1806744;79;21082;-83
2021/09/01 07:55:18;;;;;;;5.65;2.00;;;;;;;19.08;68.06;101715.09;1807752;79;21736;-83
2021/09/01 07:57:45;;;;;;;4.85;2.00;;;;;;;19.09;67.84;101726.23;1807530;79;21097;-85
2021/09/01 08:00:12;;;;;;;7.83;2.20;;;;;;;18.93;67.50;101729.23;1807539;79;21097;-84
2021/09/01 08:02:39;;;;;;;8.28;2.33;;;;;;;18.82;67.60;101738.95;1807831;78;21046;-83
2021/09/01 08:05:07;;;;;;;4.75;2.75;;;;;;;18.73;67.18;101750.43;1807809;79;21053;-83
2021/09/01 08:07:34;;;;;;;7.80;5.30;;;;;;;18.68;67.79;101745.49;1807868;79;22581;-82
2021/09/01 08:10:01;;;;;;;5.90;3.87;;;;;;;18.77;67.83;101735.31;1782588;79;21027;-82
2021/09/01 08:12:28;;;;;;;4.12;2.42;;;;;;;18.94;68.19;101728.78;1807641;79;21524;-81
2021/09/01 08:14:55;;;;;;;5.12;2.87;;;;;;;19.05;67.69;101723.10;1807575;79;21050;-81
2021/09/01 08:17:22;;;;;;;6.20;4.17;;;;;;;19.02;67.40;101733.30;1807875;79;21026;-82
2021/09/01 08:19:49;;;;;;;10.38;3.17;;;;;;;19.03;67.72;101727.09;1807660;79;22461;-80
2021/09/01 08:22:15;;;;;;;6.25;3.22;;;;;;;19.10;67.41;101741.80;1790144;79;21109;-82
2021/09/01 08:24:43;;;;;;;5.45;1.90;;;;;;;19.09;66.78;101743.99;1768899;80;21012;-81
2021/09/01 08:27:11;;;;;;;7.53;2.40;;;;;;;19.06;66.70;101731.99;1769053;81;21109;-81
2021/09/01 08:29:38;;;;;;;4.95;1.87;;;;;;;19.01;66.76;101741.28;1757274;81;21152;-83
2021/09/01 08:32:05;;;;;;;7.08;1.98;;;;;;;19.03;66.66;101744.44;1813937;77;21733;-81
2021/09/01 08:34:32;;;;;;;6.10;1.70;;;;;;;19.04;66.43;101752.88;1795911;79;21041;-80
2021/09/01 08:37:03;;;;;;;5.53;2.60;;;;;;;19.11;66.25;101747.59;1769098;80;21097;-81
2021/09/01 08:39:27;;;;;;;3.17;1.60;;;;;;;19.16;65.82;101760.08;1752863;81;21081;-82
2021/09/01 08:41:54;;;;;;;3.22;1.70;;;;;;;19.19;65.52;101749.85;1813690;78;21054;-82
2021/09/01 08:44:20;;;;;;;4.50;1.65;;;;;;;19.25;65.42;101753.00;1819874;78;22369;-81
2021/09/01 08:46:50;;;;;;;4.28;1.80;;;;;;;19.37;65.80;101761.96;1823780;77;21037;-82
2021/09/01 08:49:20;;;;;;;3.40;1.65;;;;;;;19.55;65.69;101753.13;1824286;78;21034;-82
2021/09/01 08:51:47;;;;;;;3.05;1.57;;;;;;;19.84;65.57;101747.03;1824182;78;21058;-81
2021/09/01 08:54:15;;;;;;;2.67;1.47;;;;;;;20.09;64.79;101744.41;1824128;78;22393;-81
2021/09/01 08:56:42;;;;;;;2.58;1.60;;;;;;;20.15;64.01;101741.28;1824109;78;21745;-81
2021/09/01 08:59:09;;;;;;;2.15;1.40;;;;;;;20.17;63.22;101755.99;1815635;78;21610;-82
2021/09/01 09:01:52;;;;;;;2.90;1.52;;;;;;;20.07;62.48;101757.77;1771049;80;20988;-81
2021/09/01 09:04:25;;;;;;;5.05;1.80;;;;;;;19.94;61.70;101753.29;1762503;80;21571;-81
2021/09/01 09:06:59;;;;;;;3.17;1.90;;;;;;;19.77;62.27;101759.47;1785221;79;21103;-82
2021/09/01 09:09:33;;;;;;;2.92;1.60;;;;;;;19.58;62.13;101761.16;1760160;80;22724;-82
2021/09/01 09:12:01;;;;;;;1.65;1.27;;;;;;;19.46;62.09;101772.22;1759450;81;21749;-82
2021/09/01 09:14:34;;;;;;;1.42;1.17;;;;;;;19.38;62.11;101776.19;1759943;80;21572;-87
2021/09/01 09:17:14;;;;;;;2.02;1.45;;;;;;;19.33;62.30;101774.85;1760008;81;21034;-87
2021/09/01 09:20:08;;;;;;;3.55;1.50;;;;;;;19.44;62.88;101776.22;1759687;81;21104;-87
2021/09/01 09:22:36;;;;;;;;;;;;;;;19.72;62.33;101768.33;1762269;81;21703;-87
2021/09/01 09:25:23;;;;;;;1.75;1.05;;;;;;;19.77;61.80;101776.84;1759424;81;20871;-87
2021/09/01 09:27:55;;;;;;;5.53;1.75;;;;;;;19.66;61.03;101792.35;1759507;80;21081;-86
2021/09/01 09:30:40;;;;;;;3.87;1.98;;;;;;;19.44;61.05;101784.22;1758741;80;21081;-83
2021/09/01 09:33:12;;;;;;;3.15;1.40;;;;;;;19.43;61.45;101794.02;1759410;81;21073;-87
2021/09/01 09:35:58;;;;;;;2.60;1.40;;;;;;;19.52;61.19;101786.51;1757898;81;21778;-87
2021/09/01 09:38:47;;;;;;;2.17;1.40;;;;;;;19.66;61.31;101778.99;1758955;81;21101;-83
2021/09/01 09:41:24;;;;;;;3.27;1.40;;;;;;;19.89;61.44;101772.41;1758964;81;21557;-83
2021/09/01 09:43:59;;;;;;;1.95;1.27;;;;;;;20.16;61.31;101781.84;1758878;80;22051;-83
2021/09/01 09:46:26;;;;;;;2.90;1.45;;;;;;;20.19;60.54;101764.91;1759081;81;21038;-83
2021/09/01 09:48:53;;;;;;;2.85;1.52;;;;;;;20.13;60.43;101775.59;1758897;81;21820;-86
2021/09/01 09:51:39;;;;;;;3.35;1.50;;;;;;;20.06;59.80;101767.99;1759248;81;21670;-87
2021/09/01 09:54:20;;;;;;;3.75;1.22;;;;;;;20.01;59.66;101763.11;1759139;81;21030;-85
2021/09/01 09:56:47;;;;;;;3.80;1.72;;;;;;;19.85;59.51;101774.64;1759057;81;21073;-86
2021/09/01 09:59:21;;;;;;;3.52;1.45;;;;;;;19.76;59.79;101764.80;1759321;81;21339;-87
2021/09/01 10:01:48;;;;;;;6.55;1.70;;;;;;;19.87;59.79;101772.41;1759051;81;21776;-87
2021/09/01 10:04:15;;;;;;;3.55;1.32;;;;;;;19.89;59.53;101770.62;1759067;81;21073;-87
2021/09/01 10:06:42;;;;;;;3.15;1.50;;;;;;;19.74;59.72;101767.91;1759106;81;21077;-87
2021/09/01 10:09:10;;;;;;;11.70;7.67;;;;;;;19.82;60.01;101771.52;1759048;80;21484;-86
2021/09/01 10:11:38;;;;;;;6.95;6.05;;;;;;;19.94;60.41;101770.66;1759270;81;21100;-86
2021/09/01 10:14:05;;;;;;;6.62;3.77;;;;;;;20.13;60.14;101775.59;1759946;81;21759;-87
2021/09/01 10:16:34;;;;;;;2.22;1.62;;;;;;;20.21;59.70;101772.48;1760042;81;21567;-86
2021/09/01 10:19:16;;;;;;;3.77;2.90;;;;;;;20.22;59.14;101773.39;1759591;80;21104;-87
2021/09/01 10:21:57;;;;;;;3.40;2.27;;;;;;;20.12;59.30;101776.05;1759254;81;21015;-87
2021/09/01 10:24:36;;;;;;;2.65;1.65;;;;;;;20.23;58.92;101785.40;1757473;80;21551;-87
2021/09/01 10:27:24;;;;;;;2.27;1.85;;;;;;;20.24;58.74;101772.95;1759864;81;21771;-87
2021/09/01 10:29:59;;;;;;;8.73;7.67;;;;;;;20.29;58.49;101782.76;1759701;80;21088;-87
2021/09/01 10:32:31;;;;;;;4.85;3.30;;;;;;;20.25;58.40;101774.26;1759676;81;21654;-86
2021/09/01 10:35:15;;;;;;;5.55;2.20;;;;;;;20.22;58.19;101767.59;1759243;81;21014;-89
2021/09/01 10:37:46;;;;;;;3.30;2.40;;;;;;;20.23;58.62;101765.80;1747958;81;21050;-87
2021/09/01 10:40:31;;;;;;;4.20;1.40;;;;;;;20.23;58.24;101765.80;1763938;80;21701;-89
2021/09/01 10:42:59;;;;;;;1.50;1.35;;;;;;;20.22;58.31;101759.57;1774821;80;21512;-87
2021/09/01 10:45:37;;;;;;;3.80;1.72;;;;;;;20.27;58.46;101755.55;1774704;80;21557;-86
2021/09/01 10:48:07;;;;;;;1.82;1.55;;;;;;;20.29;58.73;101755.10;1775013;80;21097;-87
2021/09/01 10:50:46;;;;;;;4.42;2.22;;;;;;;20.33;58.90;101754.25;1774640;80;21108;-86
2021/09/01 10:53:26;;;;;;;2.77;1.42;;;;;;;20.40;58.94;101757.34;1739808;82;21785;-87
2021/09/01 10:56:05;;;;;;;2.40;1.67;;;;;;;20.46;57.72;101754.69;1739080;82;21153;-87
2021/09/01 10:58:39;;;;;;;3.58;1.72;;;;;;;20.42;57.71;101756.92;1739893;81;21074;-84
2021/09/01 11:01:20;;;;;;;;;;;;;;;20.48;57.13;101759.59;1742469;81;21054;-84
2021/09/01 11:03:54;;;;;;;1.92;1.42;;;;;;;20.55;56.45;101764.05;1727458;82;20934;-84
2021/09/01 11:06:33;;;;;;;3.40;1.82;;;;;;;20.61;56.79;101764.95;1731781;82;22557;-83
2021/09/01 11:09:11;;;;;;;1.90;1.70;;;;;;;20.62;56.55;101758.27;1726356;82;21128;-84
2021/09/01 11:11:52;;;;;;;2.95;1.92;;;;;;;20.64;56.98;101760.50;1726770;82;21118;-83
2021/09/01 11:14:39;;;;;;;2.15;1.90;;;;;;;20.67;55.98;101748.92;1726480;83;21148;-84
2021/09/01 11:17:13;;;;;;;4.92;1.90;;;;;;;20.59;55.52;101759.59;1735239;81;20998;-87
2021/09/01 11:19:41;;;;;;;3.08;2.05;;;;;;;20.60;55.55;101764.07;1759930;81;21779;-87
2021/09/01 11:22:17;;;;;;;4.37;2.00;;;;;;;20.66;55.51;101760.50;1761386;80;21057;-88
2021/09/01 11:24:47;;;;;;;6.20;3.20;;;;;;;20.69;55.37;101760.05;1767830;80;21057;-86
2021/09/01 11:27:16;;;;;;;6.35;3.20;;;;;;;20.81;55.78;101760.48;1762045;81;21062;-88
2021/09/01 11:29:42;;;;;;;6.42;5.83;;;;;;;20.90;55.19;101766.28;1762291;81;21074;-87
2021/09/01 11:32:15;;;;;;;4.45;4.03;;;;;;;20.97;55.07;101771.61;1762254;81;21763;-88
2021/09/01 11:34:41;;;;;;;3.45;2.98;;;;;;;21.04;54.47;101771.59;1762745;81;21034;-86
2021/09/01 11:37:08;;;;;;;4.58;3.37;;;;;;;20.96;54.61;101783.66;1762596;81;21108;-87